sensor_id;sensor_type;location;lat;lon;timestamp;pressure;altitude;pressure_sealevel;temperature;humidity
47897;BME280;39629;51.400;5.494;2023-02-18T00:03:49;102096.28;;;10.34;100.00
47897;BME280;39629;51.400;5.494;2023-02-18T00:08:53;102088.31;;;10.31;100.00
47897;BME280;39629;51.400;5.494;2023-02-18T00:13:56;102079.44;;;10.25;100.00
47897;BME280;39629;51.400;5.494;2023-02-18T00:19:00;102081.34;;;10.32;100.00
47897;BME280;39629;51.400;5.494;2023-02-18T00:24:05;102089.22;;;10.32;100.00
47897;BME280;39629;51.400;5.494;2023-02-18T00:29:07;102079.44;;;10.25;100.00
47897;BME280;39629;51.400;5.494;2023-02-18T00:34:09;102084.72;;;10.25;100.00
47897;BME280;39629;51.400;5.494;2023-02-18T00:39:12;102088.16;;;10.20;100.00
47897;BME280;39629;51.400;5.494;2023-02-18T00:44:14;102072.38;;;10.20;100.00
47897;BME280;39629;51.400;5.494;2023-02-18T00:49:16;102063.47;;;10.14;100.00
47897;BME280;39629;51.400;5.494;2023-02-18T00:54:19;102055.56;;;10.12;100.00
47897;BME280;39629;51.400;5.494;2023-02-18T00:59:20;102047.66;;;10.12;100.00
47897;BME280;39629;51.400;5.494;2023-02-18T01:04:22;102044.91;;;10.06;100.00
47897;BME280;39629;51.400;5.494;2023-02-18T01:09:25;102042.16;;;10.00;100.00
47897;BME280;39629;51.400;5.494;2023-02-18T01:14:26;102042.03;;;9.94;100.00
47897;BME280;39629;51.400;5.494;2023-02-18T01:19:28;102040.22;;;9.91;100.00
47897;BME280;39629;51.400;5.494;2023-02-18T01:24:31;102046.25;;;9.85;100.00
47897;BME280;39629;51.400;5.494;2023-02-18T01:29:34;102040.03;;;9.80;100.00
47897;BME280;39629;51.400;5.494;2023-02-18T01:34:36;102030.34;;;9.78;100.00
47897;BME280;39629;51.400;5.494;2023-02-18T01:39:39;102033.78;;;9.74;100.00
47897;BME280;39629;51.400;5.494;2023-02-18T01:44:42;102027.63;;;9.73;100.00
47897;BME280;39629;51.400;5.494;2023-02-18T01:49:48;102014.38;;;9.68;100.00
47897;BME280;39629;51.400;5.494;2023-02-18T01:54:55;101994.25;;;9.69;100.00
47897;BME280;39629;51.400;5.494;2023-02-18T01:59:59;101997.72;;;9.66;100.00
47897;BME280;39629;51.400;5.494;2023-02-18T02:05:04;101992.38;;;9.63;100.00
47897;BME280;39629;51.400;5.494;2023-02-18T02:10:08;101999.38;;;9.63;100.00
47897;BME280;39629;51.400;5.494;2023-02-18T02:15:21;101994.13;;;9.63;100.00
47897;BME280;39629;51.400;5.494;2023-02-18T02:20:47;101989.72;;;9.62;100.00
47897;BME280;39629;51.400;5.494;2023-02-18T02:31:59;101980.13;;;9.62;100.00
47897;BME280;39629;51.400;5.494;2023-02-18T02:37:11;101970.41;;;9.60;100.00
47897;BME280;39629;51.400;5.494;2023-02-18T02:42:18;101956.44;;;9.61;100.00
47897;BME280;39629;51.400;5.494;2023-02-18T02:47:30;101948.53;;;9.61;100.00
47897;BME280;39629;51.400;5.494;2023-02-18T02:52:37;101933.63;;;9.60;100.00
47897;BME280;39629;51.400;5.494;2023-02-18T02:57:48;101928.34;;;9.58;100.00
47897;BME280;39629;51.400;5.494;2023-02-18T03:08:40;101933.56;;;9.55;100.00
47897;BME280;39629;51.400;5.494;2023-02-18T03:13:55;101916.00;;;9.54;100.00
47897;BME280;39629;51.400;5.494;2023-02-18T03:19:06;101900.19;;;9.51;100.00
47897;BME280;39629;51.400;5.494;2023-02-18T03:24:15;101890.50;;;9.48;100.00
47897;BME280;39629;51.400;5.494;2023-02-18T03:29:19;101880.88;;;9.49;100.00
47897;BME280;39629;51.400;5.494;2023-02-18T03:34:25;101872.97;;;9.47;100.00
47897;BME280;39629;51.400;5.494;2023-02-18T03:39:32;101862.44;;;9.47;100.00
47897;BME280;39629;51.400;5.494;2023-02-18T03:44:35;101862.44;;;9.47;100.00
47897;BME280;39629;51.400;5.494;2023-02-18T03:49:36;101854.53;;;9.46;100.00
47897;BME280;39629;51.400;5.494;2023-02-18T03:54:39;101843.13;;;9.45;100.00
47897;BME280;39629;51.400;5.494;2023-02-18T03:59:42;101835.19;;;9.42;100.00
47897;BME280;39629;51.400;5.494;2023-02-18T04:04:43;101822.06;;;9.42;100.00
47897;BME280;39629;51.400;5.494;2023-02-18T04:09:46;101824.66;;;9.41;100.00
47897;BME280;39629;51.400;5.494;2023-02-18T04:14:48;101818.53;;;9.40;100.00
47897;BME280;39629;51.400;5.494;2023-02-18T04:19:52;101817.59;;;9.36;100.00
47897;BME280;39629;51.400;5.494;2023-02-18T04:24:55;101809.69;;;9.35;100.00
47897;BME280;39629;51.400;5.494;2023-02-18T04:29:56;101801.81;;;9.35;100.00
47897;BME280;39629;51.400;5.494;2023-02-18T04:34:58;101808.81;;;9.34;100.00
47897;BME280;39629;51.400;5.494;2023-02-18T04:40:01;101804.44;;;9.35;100.00
47897;BME280;39629;51.400;5.494;2023-02-18T04:45:04;101802.66;;;9.34;100.00
47897;BME280;39629;51.400;5.494;2023-02-18T04:50:07;101814.91;;;9.33;100.00
47897;BME280;39629;51.400;5.494;2023-02-18T04:55:10;101813.13;;;9.32;100.00
47897;BME280;39629;51.400;5.494;2023-02-18T05:00:14;101792.09;;;9.31;100.00
47897;BME280;39629;51.400;5.494;2023-02-18T05:05:16;101796.50;;;9.32;100.00
47897;BME280;39629;51.400;5.494;2023-02-18T05:10:19;101787.69;;;9.30;100.00
47897;BME280;39629;51.400;5.494;2023-02-18T05:15:21;101776.31;;;9.29;100.00
47897;BME280;39629;51.400;5.494;2023-02-18T05:20:22;101775.47;;;9.30;100.00
47897;BME280;39629;51.400;5.494;2023-02-18T05:25:26;101775.44;;;9.29;100.00
47897;BME280;39629;51.400;5.494;2023-02-18T05:30:27;101753.63;;;9.34;100.00
47897;BME280;39629;51.400;5.494;2023-02-18T05:35:29;101750.09;;;9.32;100.00
47897;BME280;39629;51.400;5.494;2023-02-18T05:40:32;101747.47;;;9.32;100.00
47897;BME280;39629;51.400;5.494;2023-02-18T05:45:34;101756.16;;;9.30;100.00
47897;BME280;39629;51.400;5.494;2023-02-18T05:50:35;101764.97;;;9.32;100.00
47897;BME280;39629;51.400;5.494;2023-02-18T05:55:38;101776.31;;;9.29;100.00
47897;BME280;39629;51.400;5.494;2023-02-18T06:00:41;101762.34;;;9.32;100.00
47897;BME280;39629;51.400;5.494;2023-02-18T06:05:42;101750.06;;;9.31;100.00
47897;BME280;39629;51.400;5.494;2023-02-18T06:10:45;101735.13;;;9.28;100.00
47897;BME280;39629;51.400;5.494;2023-02-18T06:15:49;101735.13;;;9.27;100.00
47897;BME280;39629;51.400;5.494;2023-02-18T06:20:51;101734.25;;;9.28;100.00
47897;BME280;39629;51.400;5.494;2023-02-18T06:25:54;101729.84;;;9.25;100.00
47897;BME280;39629;51.400;5.494;2023-02-18T06:30:55;101726.34;;;9.26;100.00
47897;BME280;39629;51.400;5.494;2023-02-18T06:35:58;101728.06;;;9.24;100.00
47897;BME280;39629;51.400;5.494;2023-02-18T06:41:01;101734.13;;;9.22;100.00
47897;BME280;39629;51.400;5.494;2023-02-18T06:46:03;101732.28;;;9.16;100.00
47897;BME280;39629;51.400;5.494;2023-02-18T06:51:05;101741.06;;;9.15;100.00
47897;BME280;39629;51.400;5.494;2023-02-18T06:56:08;101741.94;;;9.15;100.00
47897;BME280;39629;51.400;5.494;2023-02-18T07:01:10;101741.00;;;9.13;100.00
47897;BME280;39629;51.400;5.494;2023-02-18T07:06:11;101745.28;;;9.07;100.00
47897;BME280;39629;51.400;5.494;2023-02-18T07:11:14;101749.50;;;8.97;100.00
47897;BME280;39629;51.400;5.494;2023-02-18T07:16:16;101738.81;;;8.91;100.00
47897;BME280;39629;51.400;5.494;2023-02-18T07:21:17;101754.56;;;8.91;100.00
47897;BME280;39629;51.400;5.494;2023-02-18T07:26:20;101758.06;;;8.91;100.00
47897;BME280;39629;51.400;5.494;2023-02-18T07:31:22;101749.28;;;8.88;100.00
47897;BME280;39629;51.400;5.494;2023-02-18T07:36:24;101756.34;;;8.92;100.00
47897;BME280;39629;51.400;5.494;2023-02-18T07:41:26;101747.44;;;8.83;100.00
47897;BME280;39629;51.400;5.494;2023-02-18T07:46:28;101759.72;;;8.84;100.00
47897;BME280;39629;51.400;5.494;2023-02-18T07:51:30;101761.47;;;8.85;100.00
47897;BME280;39629;51.400;5.494;2023-02-18T07:56:32;101776.34;;;8.85;100.00
47897;BME280;39629;51.400;5.494;2023-02-18T08:01:34;101779.84;;;8.85;100.00
47897;BME280;39629;51.400;5.494;2023-02-18T08:06:38;101789.50;;;8.86;100.00
47897;BME280;39629;51.400;5.494;2023-02-18T08:11:41;101763.25;;;8.86;100.00
47897;BME280;39629;51.400;5.494;2023-02-18T08:16:43;101772.91;;;8.89;100.00
47897;BME280;39629;51.400;5.494;2023-02-18T08:21:44;101781.69;;;8.91;100.00
47897;BME280;39629;51.400;5.494;2023-02-18T08:26:47;101772.19;;;8.95;100.00
47897;BME280;39629;51.400;5.494;2023-02-18T08:31:49;101773.13;;;8.97;100.00
47897;BME280;39629;51.400;5.494;2023-02-18T08:36:51;101769.78;;;9.07;100.00
47897;BME280;39629;51.400;5.494;2023-02-18T08:41:55;101769.00;;;9.13;100.00
47897;BME280;39629;51.400;5.494;2023-02-18T08:46:57;101761.31;;;9.22;100.00
47897;BME280;39629;51.400;5.494;2023-02-18T08:51:58;101774.78;;;9.42;100.00
47897;BME280;39629;51.400;5.494;2023-02-18T08:57:01;101768.03;;;9.58;100.00
47897;BME280;39629;51.400;5.494;2023-02-18T09:02:03;101774.28;;;9.65;100.00
47897;BME280;39629;51.400;5.494;2023-02-18T09:07:05;101760.41;;;9.74;100.00
47897;BME280;39629;51.400;5.494;2023-02-18T09:12:08;101768.22;;;9.69;100.00
47897;BME280;39629;51.400;5.494;2023-02-18T09:17:10;101769.25;;;9.79;100.00
47897;BME280;39629;51.400;5.494;2023-02-18T09:22:11;101762.31;;;9.85;100.00
47897;BME280;39629;51.400;5.494;2023-02-18T09:27:14;101771.88;;;9.80;100.00
47897;BME280;39629;51.400;5.494;2023-02-18T09:32:16;101765.72;;;9.78;100.00
47897;BME280;39629;51.400;5.494;2023-02-18T09:37:18;101780.44;;;9.67;100.00
47897;BME280;39629;51.400;5.494;2023-02-18T09:42:26;101775.09;;;9.61;100.00
47897;BME280;39629;51.400;5.494;2023-02-18T09:47:32;101787.84;;;9.39;100.00
47897;BME280;39629;51.400;5.494;2023-02-18T09:52:36;101783.38;;;9.33;100.00
47897;BME280;39629;51.400;5.494;2023-02-18T09:57:43;101780.75;;;9.33;100.00
47897;BME280;39629;51.400;5.494;2023-02-18T10:02:54;101779.94;;;9.36;100.00
47897;BME280;39629;51.400;5.494;2023-02-18T10:07:59;101781.75;;;9.40;100.00
47897;BME280;39629;51.400;5.494;2023-02-18T10:13:08;101785.28;;;9.42;100.00
47897;BME280;39629;51.400;5.494;2023-02-18T10:18:19;101795.88;;;9.47;100.00
47897;BME280;39629;51.400;5.494;2023-02-18T10:23:23;101806.44;;;9.50;100.00
47897;BME280;39629;51.400;5.494;2023-02-18T10:28:26;101802.88;;;9.48;100.00
47897;BME280;39629;51.400;5.494;2023-02-18T10:33:33;101801.19;;;9.50;100.00
47897;BME280;39629;51.400;5.494;2023-02-18T10:38:41;101808.34;;;9.59;100.00
47897;BME280;39629;51.400;5.494;2023-02-18T10:43:52;101821.50;;;9.62;100.00
47897;BME280;39629;51.400;5.494;2023-02-18T10:49:07;101819.00;;;9.68;100.00
47897;BME280;39629;51.400;5.494;2023-02-18T10:54:13;101813.78;;;9.69;100.00
47897;BME280;39629;51.400;5.494;2023-02-18T10:59:19;101822.66;;;9.76;100.00
47897;BME280;39629;51.400;5.494;2023-02-18T11:04:24;101820.19;;;9.87;100.00
47897;BME280;39629;51.400;5.494;2023-02-18T11:09:31;101823.41;;;9.69;100.00
47897;BME280;39629;51.400;5.494;2023-02-18T11:14:42;101831.31;;;9.70;100.00
47897;BME280;39629;51.400;5.494;2023-02-18T11:19:52;101836.69;;;9.78;100.00
47897;BME280;39629;51.400;5.494;2023-02-18T11:24:56;101832.38;;;9.82;100.00
47897;BME280;39629;51.400;5.494;2023-02-18T11:30:02;101832.44;;;9.86;100.00
47897;BME280;39629;51.400;5.494;2023-02-18T11:35:04;101823.09;;;10.04;100.00
47897;BME280;39629;51.400;5.494;2023-02-18T11:40:11;101829.19;;;10.01;100.00
47897;BME280;39629;51.400;5.494;2023-02-18T11:45:29;101818.75;;;10.09;100.00
47897;BME280;39629;51.400;5.494;2023-02-18T11:50:33;101805.66;;;10.12;100.00
47897;BME280;39629;51.400;5.494;2023-02-18T11:55:35;101809.38;;;10.27;100.00
47897;BME280;39629;51.400;5.494;2023-02-18T12:00:41;101809.53;;;10.39;100.00
47897;BME280;39629;51.400;5.494;2023-02-18T12:05:44;101817.56;;;10.47;100.00
47897;BME280;39629;51.400;5.494;2023-02-18T12:10:47;101814.00;;;10.45;100.00
47897;BME280;39629;51.400;5.494;2023-02-18T12:15:57;101827.03;;;10.35;100.00
47897;BME280;39629;51.400;5.494;2023-02-18T12:21:10;101813.94;;;10.38;100.00
47897;BME280;39629;51.400;5.494;2023-02-18T12:26:21;101808.66;;;10.38;100.00
47897;BME280;39629;51.400;5.494;2023-02-18T12:31:37;101794.84;;;10.55;100.00
47897;BME280;39629;51.400;5.494;2023-02-18T12:36:50;101795.94;;;10.76;100.00
47897;BME280;39629;51.400;5.494;2023-02-18T12:42:05;101783.94;;;10.96;100.00
47897;BME280;39629;51.400;5.494;2023-02-18T12:47:39;101779.53;;;10.95;100.00
47897;BME280;39629;51.400;5.494;2023-02-18T12:52:52;101787.50;;;11.00;100.00
47897;BME280;39629;51.400;5.494;2023-02-18T12:58:04;101792.91;;;11.15;100.00
47897;BME280;39629;51.400;5.494;2023-02-18T13:03:46;101787.66;;;11.15;100.00
47897;BME280;39629;51.400;5.494;2023-02-18T13:08:59;101794.72;;;11.22;100.00
47897;BME280;39629;51.400;5.494;2023-02-18T13:14:09;101790.38;;;11.26;100.00
47897;BME280;39629;51.400;5.494;2023-02-18T13:19:18;101790.34;;;11.23;100.00
47897;BME280;39629;51.400;5.494;2023-02-18T13:24:26;101790.34;;;11.23;100.00
47897;BME280;39629;51.400;5.494;2023-02-18T13:29:34;101785.97;;;11.23;100.00
47897;BME280;39629;51.400;5.494;2023-02-18T13:34:43;101791.16;;;11.17;100.00
47897;BME280;39629;51.400;5.494;2023-02-18T13:39:48;101786.00;;;11.27;100.00
47897;BME280;39629;51.400;5.494;2023-02-18T13:50:41;101785.88;;;11.14;100.00
47897;BME280;39629;51.400;5.494;2023-02-18T13:55:50;101794.56;;;11.05;100.00
47897;BME280;39629;51.400;5.494;2023-02-18T14:01:00;101785.13;;;11.26;100.00
47897;BME280;39629;51.400;5.494;2023-02-18T14:06:14;101782.59;;;11.38;100.00
47897;BME280;39629;51.400;5.494;2023-02-18T14:11:40;101800.13;;;11.33;100.00
47897;BME280;39629;51.400;5.494;2023-02-18T14:22:43;101792.13;;;11.27;100.00
47897;BME280;39629;51.400;5.494;2023-02-18T14:27:46;101786.97;;;11.39;100.00
47897;BME280;39629;51.400;5.494;2023-02-18T14:32:52;101794.03;;;11.40;100.00
47897;BME280;39629;51.400;5.494;2023-02-18T14:38:14;101799.28;;;11.40;100.00
47897;BME280;39629;51.400;5.494;2023-02-18T14:43:31;101789.63;;;11.39;100.00
47897;BME280;39629;51.400;5.494;2023-02-18T14:48:46;101785.22;;;11.37;100.00
47897;BME280;39629;51.400;5.494;2023-02-18T14:53:51;101780.75;;;11.31;100.00
47897;BME280;39629;51.400;5.494;2023-02-18T14:58:57;101784.31;;;11.33;100.00
47897;BME280;39629;51.400;5.494;2023-02-18T15:04:01;101777.25;;;11.32;100.00
47897;BME280;39629;51.400;5.494;2023-02-18T15:09:13;101779.88;;;11.31;100.00
47897;BME280;39629;51.400;5.494;2023-02-18T15:14:17;101782.53;;;11.31;100.00
47897;BME280;39629;51.400;5.494;2023-02-18T15:19:19;101783.38;;;11.31;100.00
47897;BME280;39629;51.400;5.494;2023-02-18T15:24:26;101783.38;;;11.30;100.00
47897;BME280;39629;51.400;5.494;2023-02-18T15:29:32;101786.00;;;11.27;100.00
47897;BME280;39629;51.400;5.494;2023-02-18T15:34:37;101784.94;;;11.09;100.00
47897;BME280;39629;51.400;5.494;2023-02-18T15:39:41;101791.81;;;10.95;100.00
47897;BME280;39629;51.400;5.494;2023-02-18T15:44:46;101778.63;;;10.92;100.00
47897;BME280;39629;51.400;5.494;2023-02-18T15:49:51;101776.81;;;10.87;100.00
47897;BME280;39629;51.400;5.494;2023-02-18T15:54:55;101782.06;;;10.84;100.00
47897;BME280;39629;51.400;5.494;2023-02-18T16:00:04;101775.84;;;10.84;100.00
47897;BME280;39629;51.400;5.494;2023-02-18T16:05:13;101790.66;;;10.74;100.00
47897;BME280;39629;51.400;5.494;2023-02-18T16:10:21;101793.00;;;10.49;100.00
47897;BME280;39629;51.400;5.494;2023-02-18T16:15:25;101785.78;;;10.33;100.00
47897;BME280;39629;51.400;5.494;2023-02-18T16:20:30;101799.69;;;10.24;100.00
47897;BME280;39629;51.400;5.494;2023-02-18T16:25:41;101794.25;;;10.12;100.00
47897;BME280;39629;51.400;5.494;2023-02-18T16:30:44;101802.06;;;10.07;100.00
47897;BME280;39629;51.400;5.494;2023-02-18T16:35:46;101809.91;;;10.02;100.00
47897;BME280;39629;51.400;5.494;2023-02-18T16:40:49;101811.56;;;9.96;100.00
47897;BME280;39629;51.400;5.494;2023-02-18T16:45:55;101809.75;;;9.92;100.00
47897;BME280;39629;51.400;5.494;2023-02-18T16:51:00;101801.81;;;9.88;100.00
47897;BME280;39629;51.400;5.494;2023-02-18T16:56:05;101791.19;;;9.82;100.00
47897;BME280;39629;51.400;5.494;2023-02-18T17:01:18;101791.16;;;9.79;100.00
47897;BME280;39629;51.400;5.494;2023-02-18T17:06:21;101792.81;;;9.74;100.00
47897;BME280;39629;51.400;5.494;2023-02-18T17:11:27;101796.25;;;9.71;100.00
47897;BME280;39629;51.400;5.494;2023-02-18T17:16:29;101793.59;;;9.68;100.00
47897;BME280;39629;51.400;5.494;2023-02-18T17:21:31;101796.19;;;9.65;100.00
47897;BME280;39629;51.400;5.494;2023-02-18T17:26:34;101796.13;;;9.61;100.00
47897;BME280;39629;51.400;5.494;2023-02-18T17:31:38;101793.41;;;9.58;100.00
47897;BME280;39629;51.400;5.494;2023-02-18T17:36:40;101788.16;;;9.58;100.00
47897;BME280;39629;51.400;5.494;2023-02-18T17:41:46;101788.97;;;9.53;100.00
47897;BME280;39629;51.400;5.494;2023-02-18T17:46:47;101793.31;;;9.50;100.00
47897;BME280;39629;51.400;5.494;2023-02-18T17:51:50;101788.91;;;9.49;100.00
47897;BME280;39629;51.400;5.494;2023-02-18T17:56:53;101792.41;;;9.49;100.00
47897;BME280;39629;51.400;5.494;2023-02-18T18:01:55;101799.38;;;9.47;100.00
47897;BME280;39629;51.400;5.494;2023-02-18T18:06:56;101798.56;;;9.50;100.00
47897;BME280;39629;51.400;5.494;2023-02-18T18:11:59;101802.88;;;9.46;100.00
47897;BME280;39629;51.400;5.494;2023-02-18T18:17:01;101805.50;;;9.48;100.00
47897;BME280;39629;51.400;5.494;2023-02-18T18:22:03;101794.13;;;9.47;100.00
47897;BME280;39629;51.400;5.494;2023-02-18T18:27:07;101804.66;;;9.49;100.00
47897;BME280;39629;51.400;5.494;2023-02-18T18:32:09;101809.91;;;9.49;100.00
47897;BME280;39629;51.400;5.494;2023-02-18T18:37:10;101806.50;;;9.54;100.00
47897;BME280;39629;51.400;5.494;2023-02-18T18:42:13;101797.72;;;9.51;100.00
47897;BME280;39629;51.400;5.494;2023-02-18T18:47:15;101797.63;;;9.48;100.00
47897;BME280;39629;51.400;5.494;2023-02-18T18:52:17;101799.44;;;9.50;100.00
47897;BME280;39629;51.400;5.494;2023-02-18T18:57:20;101798.63;;;9.54;100.00
47897;BME280;39629;51.400;5.494;2023-02-18T19:02:22;101806.47;;;9.51;100.00
47897;BME280;39629;51.400;5.494;2023-02-18T19:07:23;101804.84;;;9.60;100.00
47897;BME280;39629;51.400;5.494;2023-02-18T19:12:26;101791.66;;;9.57;100.00
47897;BME280;39629;51.400;5.494;2023-02-18T19:17:28;101776.78;;;9.57;100.00
47897;BME280;39629;51.400;5.494;2023-02-18T19:22:29;101795.19;;;9.59;100.00
47897;BME280;39629;51.400;5.494;2023-02-18T19:27:35;101789.94;;;9.59;100.00
47897;BME280;39629;51.400;5.494;2023-02-18T19:32:37;101791.66;;;9.57;100.00
47897;BME280;39629;51.400;5.494;2023-02-18T19:37:39;101788.22;;;9.61;100.00
47897;BME280;39629;51.400;5.494;2023-02-18T19:42:42;101775.97;;;9.61;100.00
47897;BME280;39629;51.400;5.494;2023-02-18T19:47:45;101768.06;;;9.60;100.00
47897;BME280;39629;51.400;5.494;2023-02-18T19:52:46;101755.84;;;9.63;100.00
47897;BME280;39629;51.400;5.494;2023-02-18T19:57:50;101744.44;;;9.63;100.00
47897;BME280;39629;51.400;5.494;2023-02-18T20:02:52;101743.47;;;9.58;100.00
47897;BME280;39629;51.400;5.494;2023-02-18T20:07:53;101748.84;;;9.64;100.00
47897;BME280;39629;51.400;5.494;2023-02-18T20:12:56;101746.22;;;9.62;100.00
47897;BME280;39629;51.400;5.494;2023-02-18T20:17:58;101749.75;;;9.67;100.00
47897;BME280;39629;51.400;5.494;2023-02-18T20:22:59;101746.25;;;9.65;100.00
47897;BME280;39629;51.400;5.494;2023-02-18T20:28:02;101744.44;;;9.61;100.00
47897;BME280;39629;51.400;5.494;2023-02-18T20:33:04;101728.66;;;9.61;100.00
47897;BME280;39629;51.400;5.494;2023-02-18T20:38:06;101718.22;;;9.67;100.00
47897;BME280;39629;51.400;5.494;2023-02-18T20:43:09;101706.88;;;9.70;100.00
47897;BME280;39629;51.400;5.494;2023-02-18T20:48:10;101729.66;;;9.68;100.00
47897;BME280;39629;51.400;5.494;2023-02-18T20:53:13;101715.56;;;9.66;100.00
47897;BME280;39629;51.400;5.494;2023-02-18T20:58:16;101718.28;;;9.69;100.00
47897;BME280;39629;51.400;5.494;2023-02-18T21:03:17;101714.72;;;9.65;100.00
47897;BME280;39629;51.400;5.494;2023-02-18T21:08:19;101720.84;;;9.66;100.00
47897;BME280;39629;51.400;5.494;2023-02-18T21:13:23;101719.94;;;9.64;100.00
47897;BME280;39629;51.400;5.494;2023-02-18T21:18:25;101712.88;;;9.60;100.00
47897;BME280;39629;51.400;5.494;2023-02-18T21:23:27;101707.63;;;9.60;100.00
47897;BME280;39629;51.400;5.494;2023-02-18T21:28:30;101705.78;;;9.54;100.00
47897;BME280;39629;51.400;5.494;2023-02-18T21:33:31;101704.88;;;9.53;100.00
47897;BME280;39629;51.400;5.494;2023-02-18T21:38:33;101712.81;;;9.55;100.00
47897;BME280;39629;51.400;5.494;2023-02-18T21:43:36;101711.91;;;9.54;100.00
47897;BME280;39629;51.400;5.494;2023-02-18T21:48:38;101698.81;;;9.58;100.00
47897;BME280;39629;51.400;5.494;2023-02-18T21:53:57;101676.91;;;9.56;100.00
47897;BME280;39629;51.400;5.494;2023-02-18T21:59:00;101673.41;;;9.57;100.00
47897;BME280;39629;51.400;5.494;2023-02-18T22:04:01;101656.72;;;9.53;100.00
47897;BME280;39629;51.400;5.494;2023-02-18T22:09:04;101617.28;;;9.53;100.00
47897;BME280;39629;51.400;5.494;2023-02-18T22:14:08;101678.59;;;9.53;100.00
47897;BME280;39629;51.400;5.494;2023-02-18T22:19:10;101648.84;;;9.54;100.00
47897;BME280;39629;51.400;5.494;2023-02-18T22:24:14;101653.22;;;9.54;100.00
47897;BME280;39629;51.400;5.494;2023-02-18T22:29:18;101678.69;;;9.57;100.00
47897;BME280;39629;51.400;5.494;2023-02-18T22:34:21;101690.94;;;9.59;100.00
47897;BME280;39629;51.400;5.494;2023-02-18T22:39:22;101684.00;;;9.63;100.00
47897;BME280;39629;51.400;5.494;2023-02-18T22:44:27;101687.47;;;9.62;100.00
47897;BME280;39629;51.400;5.494;2023-02-18T22:49:28;101693.66;;;9.64;100.00
47897;BME280;39629;51.400;5.494;2023-02-18T22:54:30;101683.03;;;9.58;100.00
47897;BME280;39629;51.400;5.494;2023-02-18T22:59:33;101681.41;;;9.64;100.00
47897;BME280;39629;51.400;5.494;2023-02-18T23:04:37;101681.28;;;9.55;100.00
47897;BME280;39629;51.400;5.494;2023-02-18T23:09:39;101677.59;;;9.45;100.00
47897;BME280;39629;51.400;5.494;2023-02-18T23:14:42;101667.97;;;9.43;100.00
47897;BME280;39629;51.400;5.494;2023-02-18T23:19:45;101670.50;;;9.38;100.00
47897;BME280;39629;51.400;5.494;2023-02-18T23:24:47;101671.38;;;9.37;100.00
47897;BME280;39629;51.400;5.494;2023-02-18T23:29:50;101674.00;;;9.37;100.00
47897;BME280;39629;51.400;5.494;2023-02-18T23:34:52;101662.59;;;9.36;100.00
47897;BME280;39629;51.400;5.494;2023-02-18T23:39:53;101666.88;;;9.31;100.00
47897;BME280;39629;51.400;5.494;2023-02-18T23:44:56;101656.44;;;9.34;100.00
47897;BME280;39629;51.400;5.494;2023-02-18T23:49:58;101658.09;;;9.29;100.00
47897;BME280;39629;51.400;5.494;2023-02-18T23:54:59;101655.50;;;9.31;100.00
